Flight Track Log - Related Links

Times and Time Zones

All times are in EDT time to prevent confusion due to time zone crossing. See the N516QS flight status page for this flight to view local times or setup timezone preferences in your user account.

Time Position Orientation Groundspeed Altitude Reporting Facility
EDT Latitude Longitude Course Direction KTS MPH feet Rate Location/Type
Tue 09:45:40 PM 40.9333 -74.1000 262° West 251 289 2,400  Level New York TRACON
Tue 09:47:39 PM 40.9111 -74.2967 262° West 286 329 9,300 3,184 Climbing New York Center
Tue 09:48:39 PM 40.8997 -74.3975 262° West 301 346 11,900 2,350 Climbing New York Center
Tue 09:49:39 PM 40.8825 -74.5422 261° West 347 399 14,000 2,300 Climbing New York Center
Tue 09:50:39 PM 40.8639 -74.6700 259° West 390 449 16,500 2,400 Climbing New York Center
Tue 09:51:39 PM 40.8469 -74.8033 261° West 411 473 18,800 2,550 Climbing New York Center
Tue 09:52:39 PM 40.8183 -74.9664 257° West 411 473 21,600 2,650 Climbing New York Center
Tue 09:53:39 PM 40.7736 -75.1089 248° West 416 479 24,100 2,350 Climbing New York Center
Tue 09:54:39 PM 40.7283 -75.2592 248° West 428 493 26,300 2,050 Climbing New York Center
Tue 09:55:39 PM 40.6850 -75.4125 250° West 440 506 28,200 1,850 Climbing New York Center
Tue 09:56:39 PM 40.6350 -75.5706 247° West 452 520 30,000 2,350 Climbing New York Center
Tue 09:57:39 PM 40.5889 -75.7231 248° West 464 534 32,900 2,600 Climbing New York Center
Tue 09:58:39 PM 40.5433 -75.8672 247° West 453 521 35,200 2,750 Climbing New York Center
Tue 09:59:39 PM 40.4906 -76.0217 246° West 437 503 38,400 2,400 Climbing New York Center
Tue 10:00:39 PM 40.4494 -76.1494 247° West 412 474 40,000 800 Climbing New York Center
Tue 10:01:39 PM 40.4078 -76.2878 248° West 406 467 40,000  Level New York Center
Tue 10:02:39 PM 40.3636 -76.4261 247° West 411 473 40,000 200 Level New York Center
Tue 10:03:39 PM 40.3333 -76.5761 255° West 416 479 40,400 550 Climbing New York Center
Tue 10:04:39 PM 40.3381 -76.7344 272° West 421 484 41,100 600 Climbing New York Center
Tue 10:05:39 PM 40.3425 -76.8928 272° West 427 491 41,600 950 Climbing New York Center
Tue 10:06:39 PM 40.3447 -77.0483 271° West 435 501 43,000 420 Climbing New York Center
Tue 10:08:59 PM 40.3533 -77.3994 272° West 438 504 43,000  Level Cleveland Center
Tue 10:10:00 PM 40.3586 -77.5622 272° West 447 514 43,000  Level Cleveland Center
Tue 10:11:01 PM 40.3661 -77.7253 274° West 449 517 43,000  Level Cleveland Center
Tue 10:12:02 PM 40.3717 -77.8875 273° West 449 517 43,000  Level Cleveland Center
Tue 10:13:04 PM 40.3789 -78.0839 273° West 450 518 43,000  Level Cleveland Center
Tue 10:14:05 PM 40.3850 -78.2494 273° West 453 521 43,000  Level Cleveland Center
Tue 10:15:06 PM 40.3897 -78.4156 272° West 455 524 43,000  Level Cleveland Center
Tue 10:16:08 PM 40.3944 -78.5808 272° West 455 524 43,000  Level Cleveland Center
Tue 10:17:09 PM 40.4000 -78.7456 273° West 454 522 43,000  Level Cleveland Center
Tue 10:18:10 PM 40.4042 -78.9114 272° West 455 524 43,000  Level Cleveland Center
Tue 10:19:12 PM 40.4092 -79.0769 272° West 456 525 43,000  Level Cleveland Center
Tue 10:20:13 PM 40.4128 -79.2428 272° West 457 526 43,000  Level Cleveland Center
Tue 10:21:14 PM 40.4189 -79.4322 272° West 467 537 43,000  Level Cleveland Center
Tue 10:22:15 PM 40.4233 -79.5981 272° West 458 527 43,000  Level Cleveland Center
Tue 10:23:17 PM 40.4261 -79.7667 271° West 463 533 43,000  Level Cleveland Center
Tue 10:24:18 PM 40.4300 -79.9347 272° West 464 534 43,000  Level Cleveland Center
Tue 10:25:19 PM 40.4339 -80.1172 272° West 464 534 43,000  Level Cleveland Center
Tue 10:26:20 PM 40.4367 -80.2861 271° West 466 536 43,000  Level Cleveland Center
Tue 10:27:22 PM 40.4394 -80.4639 271° West 471 542 43,000  Level Cleveland Center
Tue 10:28:23 PM 40.4417 -80.6339 271° West 468 539 43,000  Level Cleveland Center
Tue 10:29:24 PM 40.4442 -80.8044 271° West 469 540 43,000  Level Cleveland Center
Tue 10:30:25 PM 40.4456 -80.9767 271° West 472 543 43,000  Level Cleveland Center
Tue 10:31:27 PM 40.4458 -81.1486 270° West 473 544 43,000  Level Cleveland Center
Tue 10:32:28 PM 40.4475 -81.3189 271° West 469 540 43,000  Level Cleveland Center
Tue 10:33:29 PM 40.4483 -81.5167 270° West 469 540 43,000  Level Cleveland Center
Tue 10:34:31 PM 40.4492 -81.6903 270° West 471 542 43,000  Level Cleveland Center
Tue 10:35:01 PM 40.4500 -81.7789 271° West 472 543 43,000  Level Indianapolis Center
Tue 10:36:02 PM 40.4500 -81.9522 270° West 471 542 43,000  Level Indianapolis Center
Tue 10:37:03 PM 40.4508 -82.1269 270° West 473 544 43,000  Level Indianapolis Center
Tue 10:38:04 PM 40.4508 -82.3008 270° West 472 543 43,000  Level Indianapolis Center
Tue 10:39:05 PM 40.4506 -82.4731 270° West 468 539 43,000  Level Indianapolis Center
Tue 10:40:06 PM 40.4503 -82.6472 270° West 470 541 43,000  Level Indianapolis Center
Tue 10:41:07 PM 40.4492 -82.8189 270° West 466 536 43,000  Level Indianapolis Center
Tue 10:42:08 PM 40.4489 -82.9722 270° West 464 534 43,000  Level Indianapolis Center
Tue 10:43:09 PM 40.4464 -83.1733 269° West 462 532 43,000  Level Indianapolis Center
Tue 10:44:10 PM 40.4461 -83.3414 270° West 463 533 43,000  Level Indianapolis Center
Tue 10:45:11 PM 40.4431 -83.5103 269° West 466 536 43,000  Level Indianapolis Center
Tue 10:46:12 PM 40.4425 -83.6775 270° West 465 535 43,000  Level Indianapolis Center
Tue 10:47:13 PM 40.4392 -83.8447 269° West 462 532 43,000  Level Indianapolis Center
Tue 10:48:15 PM 40.4375 -84.0125 269° West 464 534 43,000  Level Indianapolis Center
Tue 10:49:16 PM 40.4353 -84.1806 269° West 464 534 43,000  Level Indianapolis Center
Tue 10:50:17 PM 40.4319 -84.3497 269° West 466 536 43,000  Level Indianapolis Center
Tue 10:51:18 PM 40.4278 -84.5161 268° West 462 532 43,000  Level Indianapolis Center
Tue 10:52:19 PM 40.4239 -84.7178 269° West 462 532 43,000  Level Indianapolis Center
Tue 10:53:20 PM 40.4197 -84.8858 268° West 463 533 43,000  Level Indianapolis Center
Tue 10:54:21 PM 40.4153 -85.0536 268° West 466 536 43,000  Level Indianapolis Center
Tue 10:55:22 PM 40.4114 -85.2222 268° West 466 536 43,000  Level Indianapolis Center
Tue 10:55:53 PM 40.4081 -85.3211 267° West 466 536 43,000  Level Chicago Center
Tue 10:56:54 PM 40.4031 -85.4892 268° West 465 535 43,000  Level Chicago Center
Tue 10:57:55 PM 40.3978 -85.6581 268° West 467 537 43,000  Level Chicago Center
Tue 10:58:56 PM 40.3928 -85.8264 268° West 466 536 43,000  Level Chicago Center
Tue 10:59:57 PM 40.3878 -85.9950 268° West 467 537 43,000  Level Chicago Center
Tue 11:00:58 PM 40.3828 -86.1625 268° West 465 535 43,000  Level Chicago Center
Tue 11:01:59 PM 40.3781 -86.3292 268° West 463 533 43,000  Level Chicago Center
Tue 11:02:59 PM 40.3711 -86.5008 267° West 472 543 43,000  Level Chicago Center
Tue 11:04:00 PM 40.3647 -86.6669 267° West 465 535 43,000  Level Chicago Center
Tue 11:05:01 PM 40.3575 -86.8378 267° West 471 542 43,000  Level Chicago Center
Tue 11:06:02 PM 40.3494 -87.0422 267° West 472 543 43,000  Level Chicago Center
Tue 11:07:03 PM 40.3422 -87.2125 267° West 473 544 43,000  Level Chicago Center
Tue 11:08:04 PM 40.3331 -87.3828 266° West 472 543 43,000  Level Chicago Center
Tue 11:09:04 PM 40.3272 -87.5381 267° West 468 539 43,000  Level Chicago Center
Tue 11:10:05 PM 40.3189 -87.7100 266° West 472 543 43,000  Level Chicago Center
Tue 11:11:06 PM 40.3103 -87.8803 266° West 470 541 43,000  Level Chicago Center
Tue 11:12:07 PM 40.3003 -88.0861 266° West 473 544 43,000  Level Chicago Center
Tue 11:13:08 PM 40.2919 -88.2594 266° West 476 548 43,000  Level Chicago Center
Tue 11:14:08 PM 40.2822 -88.4303 266° West 474 545 43,000  Level Chicago Center
Tue 11:15:09 PM 40.2728 -88.5981 266° West 471 542 43,000  Level Chicago Center
Tue 11:16:10 PM 40.2631 -88.7686 266° West 469 540 43,000  Level Chicago Center
Tue 11:17:11 PM 40.2525 -88.9414 265° West 472 543 43,000  Level Chicago Center
Tue 11:18:12 PM 40.2411 -89.1103 265° West 468 539 43,000  Level Chicago Center
Tue 11:19:13 PM 40.2322 -89.2814 266° West 473 544 43,000  Level Chicago Center
Tue 11:20:13 PM 40.2219 -89.4531 266° West 472 543 43,000  Level Chicago Center
Tue 11:21:14 PM 40.2100 -89.6239 265° West 470 541 43,000  Level Chicago Center
Tue 11:22:15 PM 40.1994 -89.7956 265° West 471 542 43,000  Level Chicago Center
Tue 11:23:16 PM 40.1872 -89.9656 265° West 469 540 43,000  Level Chicago Center
Tue 11:23:46 PM 40.1831 -90.0350 266° West 469 540 43,000  Level Kansas City Center
Tue 11:24:17 PM 40.1761 -90.1358 265° West 471 542 43,000  Level Chicago Center
Tue 11:25:17 PM 40.1639 -90.3064 265° West 472 543 43,000  Level Chicago Center
Tue 11:26:18 PM 40.1522 -90.4761 265° West 470 541 43,000  Level Chicago Center
Tue 11:27:19 PM 40.1394 -90.6567 265° West 476 548 43,000  Level Chicago Center
Tue 11:28:20 PM 40.1264 -90.8258 264° West 473 544 43,000  Level Chicago Center
Tue 11:29:20 PM 40.1128 -90.9942 264° West 471 542 43,000  Level Chicago Center
Tue 11:29:51 PM 40.1072 -91.0603 264° West 470 541 43,000  Level Kansas City Center
Tue 11:30:51 PM 40.0956 -91.2289 265° West 470 541 43,000  Level Kansas City Center
Tue 11:31:52 PM 40.0792 -91.4300 264° West 469 540 43,000  Level Kansas City Center
Tue 11:32:53 PM 40.0656 -91.5975 264° West 468 539 43,000  Level Kansas City Center
Tue 11:33:54 PM 40.0517 -91.7639 264° West 467 537 43,000  Level Kansas City Center
Tue 11:34:55 PM 40.0392 -91.9325 265° West 467 537 43,000  Level Kansas City Center
Tue 11:35:55 PM 40.0244 -92.0997 263° West 467 537 43,000  Level Kansas City Center
Tue 11:36:55 PM 40.0089 -92.2678 263° West 468 539 43,000  Level Kansas City Center
Tue 11:37:57 PM 39.9944 -92.4364 264° West 467 537 43,000  Level Kansas City Center
Tue 11:38:57 PM 39.9783 -92.6053 263° West 467 537 43,000  Level Kansas City Center
Tue 11:39:56 PM 39.9622 -92.7728 263° West 465 535 43,000  Level Kansas City Center
Tue 11:40:59 PM 39.9464 -92.9406 263° West 466 536 43,000  Level Kansas City Center
Tue 11:42:00 PM 39.9314 -93.1072 263° West 467 537 43,000  Level Kansas City Center
Tue 11:43:01 PM 39.9156 -93.2753 263° West 468 539 43,000  Level Kansas City Center
Tue 11:44:02 PM 39.8997 -93.4408 263° West 465 535 43,000  Level Kansas City Center
Tue 11:45:02 PM 39.8825 -93.6081 262° West 467 537 43,000  Level Kansas City Center
Tue 11:46:03 PM 39.8661 -93.7747 263° West 469 540 43,000  Level Kansas City Center
Tue 11:47:04 PM 39.8464 -93.9739 263° West 467 537 43,000  Level Kansas City Center
Tue 11:48:02 PM 39.8289 -94.1450 262° West 464 534 43,000  Level Kansas City Center
Tue 11:49:05 PM 39.8125 -94.3033 262° West 463 533 43,000  Level Kansas City Center
Tue 11:50:04 PM 39.7961 -94.4628 262° West 465 535 43,000  Level Kansas City Center
Tue 11:51:07 PM 39.7764 -94.6475 262° West 464 534 43,000  Level Kansas City Center
Tue 11:52:06 PM 39.7592 -94.8061 262° West 465 535 43,000  Level Kansas City Center
Tue 11:53:08 PM 39.7414 -94.9658 262° West 468 539 43,000  Level Kansas City Center
Tue 11:54:09 PM 39.7203 -95.1508 262° West 467 537 43,000  Level Kansas City Center
Tue 11:55:07 PM 39.7028 -95.3081 262° West 465 535 43,000  Level Kansas City Center
Tue 11:56:08 PM 39.6847 -95.4644 262° West 462 532 43,000  Level Kansas City Center
Tue 11:57:10 PM 39.6636 -95.6464 261° West 460 529 43,000  Level Kansas City Center
Tue 11:58:12 PM 39.6456 -95.8033 262° West 461 531 43,000  Level Kansas City Center
Tue 11:59:12 PM 39.6258 -95.9614 261° West 461 531 43,000  Level Kansas City Center
Wed 12:00:12 AM 39.6036 -96.1436 261° West 462 532 43,000  Level Kansas City Center
Wed 12:01:13 AM 39.5842 -96.3025 261° West 466 536 43,000  Level Kansas City Center
Wed 12:02:14 AM 39.5650 -96.4589 261° West 462 532 43,000  Level Kansas City Center
Wed 12:03:16 AM 39.5417 -96.6406 261° West 458 527 43,000  Level Kansas City Center
Wed 12:04:17 AM 39.5236 -96.7961 261° West 456 525 43,000  Level Kansas City Center
Wed 12:05:14 AM 39.5014 -96.9517 260° West 460 529 43,000  Level Kansas City Center
Wed 12:06:15 AM 39.4772 -97.1333 260° West 460 529 43,000  Level Kansas City Center
Wed 12:07:18 AM 39.4569 -97.2883 260° West 458 527 43,000  Level Kansas City Center
Wed 12:08:17 AM 39.4364 -97.4422 260° West 456 525 43,000  Level Kansas City Center
Wed 12:09:20 AM 39.4147 -97.6014 260° West 459 528 43,000  Level Kansas City Center
Wed 12:10:19 AM 39.3883 -97.7958 260° West 456 525 43,000  Level Kansas City Center
Wed 12:11:21 AM 39.3703 -97.9297 260° West 449 517 43,000  Level Kansas City Center
Wed 12:12:22 AM 39.3469 -98.1061 260° West 446 513 43,000  Level Kansas City Center
Wed 12:13:22 AM 39.3206 -98.2747 259° West 456 525 43,000  Level Kansas City Center
Wed 12:14:21 AM 39.2986 -98.4353 260° West 455 524 43,000  Level Kansas City Center
Wed 12:15:24 AM 39.2769 -98.5939 260° West 453 521 43,000  Level Kansas City Center
Wed 12:16:24 AM 39.2553 -98.7497 260° West 458 527 43,000  Level Kansas City Center
Wed 12:17:25 AM 39.2347 -98.8953 260° West 459 528 43,000  Level Kansas City Center
Wed 12:18:26 AM 39.2103 -99.0564 259° West 459 528 43,000  Level Kansas City Center
Wed 12:19:27 AM 39.1806 -99.2472 259° West 454 522 43,000  Level Kansas City Center
Wed 12:20:26 AM 39.1567 -99.4050 259° West 452 520 43,000  Level Kansas City Center
Wed 12:21:28 AM 39.1331 -99.5633 259° West 451 519 43,000  Level Kansas City Center
Wed 12:22:28 AM 39.1086 -99.7164 258° West 450 518 43,000  Level Kansas City Center
Wed 12:23:27 AM 39.0856 -99.8669 259° West 449 517 43,000  Level Kansas City Center
Wed 12:24:30 AM 39.0581 -100.0431 259° West 449 517 43,000  Level Kansas City Center
Wed 12:25:30 AM 39.0344 -100.1911 258° West 446 513 43,000  Level Kansas City Center
Wed 12:26:31 AM 39.0108 -100.3411 259° West 447 514 43,000  Level Kansas City Center
Wed 12:27:32 AM 38.9819 -100.5150 258° West 447 514 43,000  Level Kansas City Center
Wed 12:28:32 AM 38.9572 -100.6633 258° West 446 513 43,000  Level Kansas City Center
Wed 12:29:33 AM 38.9331 -100.8122 258° West 447 514 43,000  Level Kansas City Center
Wed 12:30:33 AM 38.9044 -100.9847 258° West 444 511 43,000  Level Kansas City Center
Wed 12:31:48 AM 38.8725 -101.1781 258° West 441 507 43,000  Level Denver Center
Wed 12:32:49 AM 38.8475 -101.3256 258° West 443 510 43,000  Level Denver Center
Wed 12:33:49 AM 38.8178 -101.4989 258° West 447 514 43,000  Level Denver Center
Wed 12:34:50 AM 38.7914 -101.6503 257° West 453 521 43,000  Level Denver Center
Wed 12:35:50 AM 38.7650 -101.7997 257° West 451 519 43,000  Level Denver Center
Wed 12:36:51 AM 38.7356 -101.9719 258° West 448 516 43,000  Level Denver Center
Wed 12:37:51 AM 38.7097 -102.1192 257° West 445 512 43,000  Level Denver Center
Wed 12:38:52 AM 38.6828 -102.2700 257° West 452 520 43,000  Level Denver Center
Wed 12:39:52 AM 38.6508 -102.4436 257° West 452 520 43,000  Level Denver Center
Wed 12:40:53 AM 38.6247 -102.5936 257° West 453 521 43,000  Level Denver Center
Wed 12:41:53 AM 38.5972 -102.7436 257° West 453 521 43,000  Level Denver Center
Wed 12:42:54 AM 38.5672 -102.9025 256° West 451 519 43,000  Level Denver Center
Wed 12:43:54 AM 38.5375 -103.0669 257° West 452 520 43,000  Level Denver Center
Wed 12:44:54 AM 38.5092 -103.2158 256° West 452 520 43,000  Level Denver Center
Wed 12:45:55 AM 38.4822 -103.3631 257° West 448 516 43,000  Level Denver Center
Wed 12:47:00 AM 38.4500 -103.5221 256° West  Level FlightAware Approximate
Wed 12:47:56 AM 38.4197 -103.6892 256° West 446 513 43,000  Level Denver Center
Wed 12:48:56 AM 38.3919 -103.8350 256° West 444 511 43,000  Level Denver Center
Wed 12:49:56 AM 38.3633 -103.9794 256° West 442 509 43,000  Level Denver Center
Wed 12:50:57 AM 38.3333 -104.1333 256° West 441 507 43,000  Level Denver Center
Wed 12:51:57 AM 38.3017 -104.2931 256° West 443 510 43,000  Level Denver Center
Wed 12:52:58 AM 38.2728 -104.4403 256° West 448 516 43,000  Level Denver Center
Wed 12:53:58 AM 38.2378 -104.6144 256° West 455 524 43,000  Level Denver Center
Wed 12:54:58 AM 38.2086 -104.7606 256° West 450 518 43,000 -50 Level Denver Center
Wed 12:55:59 AM 38.1792 -104.9056 256° West 446 513 42,900  Descending Denver Center
Wed 12:56:59 AM 38.1458 -105.0656 255° West 425 489 43,000 50 Climbing Denver Center
Wed 12:57:59 AM 38.1183 -105.2017 256° West 418 481 43,000  Level Denver Center
Wed 12:58:59 AM 38.0886 -105.3436 255° West 431 496 43,000  Level Denver Center
Wed 01:00:00 AM 38.0589 -105.4817 255° West 428 493 43,000  Level Denver Center
Wed 01:01:00 AM 38.0261 -105.6431 256° West 424 488 43,000  Level Denver Center
Wed 01:02:00 AM 37.9956 -105.7881 255° West 439 505 43,000  Level Denver Center
Wed 01:03:01 AM 37.9639 -105.9364 255° West 453 521 43,000  Level Denver Center
Wed 01:04:01 AM 37.9267 -106.1094 255° West 458 527 43,000 50 Level Denver Center
Wed 01:05:01 AM 37.8950 -106.2589 255° West 458 527 43,100  Climbing Denver Center
Wed 01:06:02 AM 37.8619 -106.4033 254° West 451 519 43,000 -33 Descending Denver Center
Wed 01:08:02 AM 37.7964 -106.7036 255° West 429 494 43,000  Level Denver Center
Wed 01:09:02 AM 37.7661 -106.8414 255° West 427 491 43,000  Level Denver Center
Wed 01:10:03 AM 37.7350 -106.9808 254° West 430 495 43,000  Level Denver Center
Wed 01:11:03 AM 37.6983 -107.1472 254° West 440 506 43,000  Level Denver Center
Wed 01:12:03 AM 37.6661 -107.2853 254° West 431 496 43,000  Level Denver Center
Wed 01:13:03 AM 37.6356 -107.4242 255° West 430 495 43,000  Level Denver Center
Wed 01:14:04 AM 37.6025 -107.5633 253° West 432 497 43,000  Level Denver Center
Wed 01:15:04 AM 37.5658 -107.7253 254° West 432 497 43,000  Level Denver Center
Wed 01:16:04 AM 37.5342 -107.8622 254° West 427 491 43,000  Level Denver Center
Wed 01:17:04 AM 37.5022 -108.0003 254° West 429 494 43,000  Level Denver Center
Wed 01:18:05 AM 37.4644 -108.1606 254° West 429 494 43,000  Level Denver Center
Wed 01:20:05 AM 37.4003 -108.4333 254° West 426 490 43,000  Level Denver Center
Wed 01:21:05 AM 37.3617 -108.5897 253° West 421 484 43,000  Level Denver Center
Wed 01:22:06 AM 37.3294 -108.7264 254° West 424 488 43,000  Level Denver Center
Wed 01:23:06 AM 37.2961 -108.8614 253° West 426 490 43,000  Level Denver Center
Wed 01:24:06 AM 37.2631 -109.0000 253° West 433 498 43,000  Level Denver Center
Wed 01:25:06 AM 37.2250 -109.1617 254° West 434 499 43,000  Level Denver Center
Wed 01:26:07 AM 37.1911 -109.2983 253° West 432 497 43,000  Level Denver Center
Wed 01:27:07 AM 37.1575 -109.4322 253° West 426 490 43,000  Level Denver Center
Wed 01:28:07 AM 37.1172 -109.5919 252° West 429 494 43,000  Level Denver Center
Wed 01:29:07 AM 37.0833 -109.7281 253° West 430 495 43,000  Level Denver Center
Wed 01:30:08 AM 37.0494 -109.8603 252° West 423 487 43,000  Level Denver Center
Wed 01:31:08 AM 37.0100 -110.0192 253° West 427 491 43,000  Level Denver Center
Wed 01:32:08 AM 36.9750 -110.1553 252° West 430 495 43,000  Level Denver Center
Wed 01:33:08 AM 36.9425 -110.2797 252° West 430 495 43,000  Level Denver Center
Wed 01:34:09 AM 36.9069 -110.4197 252° West 425 489 43,000  Level Denver Center
Wed 01:35:09 AM 36.8708 -110.5583 252° West 419 482 43,000  Level Denver Center
Wed 01:36:09 AM 36.8344 -110.6972 252° West 422 486 43,000  Level Denver Center
Wed 01:37:09 AM 36.7975 -110.8397 252° West 431 496 43,000  Level Denver Center
Wed 01:38:10 AM 36.7603 -110.9811 252° West 431 496 43,000  Level Denver Center
Wed 01:39:10 AM 36.7217 -111.1225 251° West 432 497 43,000  Level Denver Center
Wed 01:40:10 AM 36.6850 -111.2614 252° West 425 489 43,000  Level Denver Center
Wed 01:41:10 AM 36.6503 -111.3975 252° West 418 481 43,000  Level Denver Center
Wed 01:42:11 AM 36.6050 -111.5619 251° West 418 481 43,000  Level Denver Center
Wed 01:43:12 AM 36.5672 -111.6986 251° West 419 482 43,000  Level Los Angeles Center
Wed 01:44:13 AM 36.5281 -111.8456 252° West 444 511 43,000  Level Los Angeles Center
Wed 01:45:14 AM 36.4894 -111.9844 251° West 427 491 43,000  Level Los Angeles Center
Wed 01:46:14 AM 36.4533 -112.1175 251° West 410 472 43,000  Level Los Angeles Center
Wed 01:47:15 AM 36.4164 -112.2533 251° West 414 476 43,000  Level Los Angeles Center
Wed 01:48:15 AM 36.3789 -112.3878 251° West 414 476 43,000  Level Los Angeles Center
Wed 01:49:16 AM 36.3408 -112.5264 251° West 421 484 43,000  Level Los Angeles Center
Wed 01:50:17 AM 36.3014 -112.6644 251° West 424 488 43,000  Level Los Angeles Center
Wed 01:51:17 AM 36.2633 -112.8011 251° West 421 484 43,000  Level Los Angeles Center
Wed 01:52:18 AM 36.2239 -112.9381 250° West 423 487 43,000  Level Los Angeles Center
Wed 01:53:18 AM 36.1861 -113.0731 251° West 417 480 43,000  Level Los Angeles Center
Wed 01:54:19 AM 36.1469 -113.2081 250° West 416 479 43,000  Level Los Angeles Center
Wed 01:55:20 AM 36.1058 -113.3539 251° West 420 483 43,000  Level Los Angeles Center
Wed 01:56:20 AM 36.0656 -113.4908 250° West 423 487 43,000  Level Los Angeles Center
Wed 01:57:21 AM 36.0261 -113.6278 250° West 425 489 43,000  Level Los Angeles Center
Wed 01:58:21 AM 35.9861 -113.7658 250° West 428 493 43,000  Level Los Angeles Center
Wed 01:59:22 AM 35.9472 -113.9025 251° West 422 486 43,000  Level Los Angeles Center
Wed 02:00:22 AM 35.9056 -114.0350 249° West 415 478 43,000  Level Los Angeles Center
Wed 02:01:47 AM 35.8583 -114.1975 250° West 418 481 43,000  Level Los Angeles Center
Wed 02:02:48 AM 35.8103 -114.3594 250° West 419 482 43,000  Level Los Angeles Center
Wed 02:03:48 AM 35.7689 -114.4942 249° West 419 482 43,000  Level Los Angeles Center
Wed 02:04:49 AM 35.7283 -114.6303 250° West 422 486 43,000  Level Los Angeles Center
Wed 02:05:49 AM 35.6875 -114.7661 250° West 422 486 43,000  Level Los Angeles Center
Wed 02:06:50 AM 35.6478 -114.9019 250° West 421 484 43,000  Level Los Angeles Center
Wed 02:07:51 AM 35.6058 -115.0372 249° West 421 484 43,000  Level Los Angeles Center
Wed 02:08:51 AM 35.5656 -115.1708 250° West 416 479 43,000  Level Los Angeles Center
Wed 02:09:52 AM 35.5228 -115.3064 249° West 422 486 43,000 -198 Level Los Angeles Center
Wed 02:10:52 AM 35.4811 -115.4422 249° West 423 487 42,600 -942 Descending Los Angeles Center
Wed 02:11:53 AM 35.4422 -115.5697 250° West 424 488 41,100 -1,488 Descending Los Angeles Center
Wed 02:12:53 AM 35.4000 -115.7022 249° West 420 483 39,600 -1,537 Descending Los Angeles Center
Wed 02:13:54 AM 35.3575 -115.8375 249° West 424 488 38,000 -1,537 Descending Los Angeles Center
Wed 02:14:54 AM 35.3175 -115.9678 249° West 414 476 36,500 -1,488 Descending Los Angeles Center
Wed 02:15:55 AM 35.2753 -116.0983 248° West 412 474 35,000 -1,636 Descending Los Angeles Center
Wed 02:16:55 AM 35.2256 -116.2575 249° West 417 480 33,200 -1,636 Descending Los Angeles Center
Wed 02:17:56 AM 35.1831 -116.3889 248° West 416 479 31,700 -1,488 Descending Los Angeles Center
Wed 02:18:56 AM 35.1378 -116.5278 248° West 437 503 30,200 -1,488 Descending Los Angeles Center
Wed 02:19:57 AM 35.0933 -116.6653 248° West 437 503 28,700 -1,537 Descending Los Angeles Center
Wed 02:20:57 AM 35.0503 -116.7992 249° West 428 493 27,100 -1,587 Descending Los Angeles Center
Wed 02:21:58 AM 35.0086 -116.9331 249° West 423 487 25,500 -1,587 Descending Los Angeles Center
Wed 02:22:58 AM 34.9683 -117.0647 250° West 417 480 23,900 -1,587 Descending Los Angeles Center
Wed 02:23:59 AM 34.9281 -117.1964 250° West 414 476 22,300 -1,587 Descending Los Angeles Center
Wed 02:24:59 AM 34.8883 -117.3242 249° West 406 467 20,700 -1,537 Descending Los Angeles Center
Wed 02:26:00 AM 34.8489 -117.4497 249° West 398 458 19,200 -1,537 Descending Los Angeles Center
Wed 02:27:00 AM 34.8097 -117.5750 249° West 395 455 17,600 -1,537 Descending Los Angeles Center
Wed 02:28:01 AM 34.7742 -117.6953 250° West 375 432 16,100 -1,388 Descending Los Angeles Center
Wed 02:29:01 AM 34.7400 -117.8069 250° West 355 409 14,800 -1,339 Descending Los Angeles Center
Wed 02:30:02 AM 34.7042 -117.9189 249° West 354 407 13,400 -1,234 Descending Los Angeles Center
Wed 02:32:00 AM 34.6119 -118.1799 246° West  Level FlightAware Approximate
Wed 02:34:17 AM 34.5667 -118.3333 90° East 257 296 8,300  Level Southern California TRACON
Wed 02:34:59 AM 34.5667 -118.3833 270° West 261 300 8,000 -263 Descending Southern California TRACON
Wed 02:36:11 AM 34.5333 -118.5000 251° West 266 306 7,800 -667 Descending Southern California TRACON
Wed 02:37:05 AM 34.4833 -118.5333 209° Southwest 261 300 6,600 -947 Descending Southern California TRACON
Wed 02:38:05 AM 34.4333 -118.5667 209° Southwest 221 254 6,000 -762 Descending Southern California TRACON
Wed 02:39:00 AM 34.2000 -118.3500 90° East  Level FlightAware Approximate
Wed 02:39:11 AM 34.3667 -118.6000 202° Southwest 211 243 5,000  Level Southern California TRACON
Wed 02:40:05 AM 34.3167 -118.6333 209° Southwest 212 244 5,000  Level Southern California TRACON
Wed 02:41:11 AM 34.2667 -118.6667 209° Southwest 183 211 5,000 -381 Level Southern California TRACON
Wed 02:42:11 AM 34.2167 -118.6500 165° South 185 213 4,200 -526 Descending Southern California TRACON
Wed 02:43:05 AM 34.2000 -118.6000 112° Southeast 183 211 4,000 -235 Descending Southern California TRACON
Wed 02:43:53 AM 34.2000 -118.5500 90° East 164 189 3,800 -588 Descending Southern California TRACON
Wed 02:44:47 AM 34.2000 -118.5000 90° East 160 184 3,000 -842 Descending Southern California TRACON
Wed 02:45:47 AM 34.2000 -118.4500 90° East 160 184 2,200 -800 Descending Southern California TRACON
Wed 02:46:47 AM 34.2000 -118.4000 90° East 125 144 1,400 -800 Descending Southern California TRACON

Login

Don't have an account? Register now (free) for customized features, flight alerts, and more!